createdAt,value
2022-11-18T00:01:17.043Z,12.55
2022-11-18T00:03:43.918Z,11.65
2022-11-18T00:06:12.355Z,11.52
2022-11-18T00:08:39.167Z,11.13
2022-11-18T00:11:36.718Z,11.68
2022-11-18T00:14:23.324Z,11.48
2022-11-18T00:16:58.303Z,11.35
2022-11-18T00:19:26.874Z,11.23
2022-11-18T00:21:54.073Z,11.18
2022-11-18T00:24:20.860Z,11.40
2022-11-18T00:26:48.163Z,11.15
2022-11-18T00:29:15.171Z,12.77
2022-11-18T00:31:42.495Z,11.50
2022-11-18T00:34:11.508Z,11.38
2022-11-18T00:36:39.086Z,11.48
2022-11-18T00:39:05.778Z,11.73
2022-11-18T00:41:51.033Z,11.43
2022-11-18T00:44:17.751Z,11.60
2022-11-18T00:46:45.314Z,11.65
2022-11-18T00:49:12.008Z,12.02
2022-11-18T00:51:39.183Z,11.10
2022-11-18T00:54:06.010Z,12.18
2022-11-18T00:56:33.198Z,10.80
2022-11-18T00:59:00.022Z,11.90
2022-11-18T01:01:27.092Z,11.00
2022-11-18T01:03:53.863Z,11.02
2022-11-18T01:06:20.943Z,11.50
2022-11-18T01:08:47.700Z,11.05
2022-11-18T01:11:33.434Z,11.32
2022-11-18T01:14:00.137Z,11.32
2022-11-18T01:16:27.741Z,10.85
2022-11-18T01:18:54.529Z,11.35
2022-11-18T01:21:21.744Z,12.13
2022-11-18T01:23:48.606Z,11.25
2022-11-18T01:26:16.139Z,11.73
2022-11-18T01:28:43.041Z,10.55
2022-11-18T01:31:14.926Z,11.30
2022-11-18T01:33:42.069Z,12.25
2022-11-18T01:36:16.546Z,12.35
2022-11-18T01:38:43.281Z,11.50
2022-11-18T01:41:10.346Z,11.05
2022-11-18T01:44:02.137Z,10.68
2022-11-18T01:46:31.033Z,11.18
2022-11-18T01:49:04.498Z,10.63
2022-11-18T01:51:33.756Z,10.52
2022-11-18T01:54:03.694Z,11.00
2022-11-18T01:56:40.981Z,10.68
2022-11-18T01:59:15.852Z,11.40
2022-11-18T02:01:43.215Z,10.10
2022-11-18T02:04:10.092Z,11.15
2022-11-18T02:06:37.388Z,10.43
2022-11-18T02:09:04.492Z,10.00
2022-11-18T02:11:50.160Z,10.13
2022-11-18T02:14:18.365Z,11.18
2022-11-18T02:16:54.068Z,11.65
2022-11-18T02:22:40.557Z,9.25
2022-11-18T02:25:19.211Z,10.50
2022-11-18T02:27:58.015Z,10.57
2022-11-18T02:30:24.795Z,11.15
2022-11-18T02:33:00.297Z,11.25
2022-11-18T02:35:29.766Z,10.77
2022-11-18T02:38:05.977Z,10.35
2022-11-18T02:40:34.854Z,11.48
2022-11-18T02:43:04.815Z,10.48
2022-11-18T02:45:31.574Z,10.63
2022-11-18T02:48:01.318Z,10.18
2022-11-18T02:50:28.071Z,10.55
2022-11-18T02:52:57.728Z,11.60
2022-11-18T02:55:24.536Z,10.05
2022-11-18T02:57:51.673Z,10.57
2022-11-18T03:00:18.493Z,10.40
2022-11-18T03:02:47.542Z,10.50
2022-11-18T03:05:46.654Z,11.10
2022-11-18T03:08:15.462Z,9.60
2022-11-18T03:11:15.893Z,10.90
2022-11-18T03:14:11.085Z,10.00
2022-11-18T03:17:02.298Z,9.75
2022-11-18T03:19:31.984Z,10.57
2022-11-18T03:22:01.809Z,10.73
2022-11-18T03:24:33.294Z,10.02
2022-11-18T03:27:13.843Z,10.25
2022-11-18T03:29:58.558Z,10.50
2022-11-18T03:32:27.122Z,10.18
2022-11-18T03:34:57.824Z,11.02
2022-11-18T03:37:24.642Z,11.93
2022-11-18T03:39:57.047Z,10.05
2022-11-18T03:42:25.007Z,10.57
2022-11-18T03:44:55.893Z,10.13
2022-11-18T03:47:27.189Z,10.65
2022-11-18T03:49:58.085Z,10.75
2022-11-18T03:52:27.065Z,11.73
2022-11-18T03:54:55.070Z,10.82
2022-11-18T03:57:25.777Z,11.38
2022-11-18T03:59:56.889Z,10.95
2022-11-18T04:02:23.986Z,11.05
2022-11-18T04:04:51.895Z,11.45
2022-11-18T04:07:22.283Z,11.27
2022-11-18T04:09:57.823Z,10.95
2022-11-18T04:12:24.602Z,9.85
2022-11-18T04:14:55.470Z,12.25
2022-11-18T04:17:23.532Z,11.82
2022-11-18T04:19:50.587Z,11.15
2022-11-18T04:22:19.231Z,10.68
2022-11-18T04:24:46.264Z,10.43
2022-11-18T04:27:13.269Z,12.10
2022-11-18T04:29:40.270Z,12.00
2022-11-18T04:32:07.012Z,12.75
2022-11-18T04:34:34.047Z,10.82
2022-11-18T04:37:00.888Z,10.32
2022-11-18T04:39:28.169Z,10.07
2022-11-18T04:41:57.931Z,11.05
2022-11-18T04:44:32.213Z,10.95
2022-11-18T04:47:00.452Z,11.18
2022-11-18T04:49:27.788Z,11.20
2022-11-18T04:51:54.829Z,11.45
2022-11-18T04:54:22.054Z,11.80
2022-11-18T04:56:49.824Z,10.68
2022-11-18T04:59:19.150Z,10.20
2022-11-18T05:01:46.324Z,10.25
2022-11-18T05:04:14.771Z,11.10
2022-11-18T05:06:41.509Z,10.88
2022-11-18T05:09:09.598Z,10.23
2022-11-18T05:11:55.044Z,11.55
2022-11-18T05:16:48.754Z,11.90
2022-11-18T05:19:16.333Z,10.75
2022-11-18T05:21:43.292Z,10.63
2022-11-18T05:24:10.274Z,10.90
2022-11-18T05:26:37.082Z,11.30
2022-11-18T05:29:04.097Z,11.75
2022-11-18T05:31:30.866Z,10.63
2022-11-18T05:33:57.898Z,11.98
2022-11-18T05:36:24.699Z,11.07
2022-11-18T05:38:51.774Z,10.90
2022-11-18T05:41:37.403Z,10.15
2022-11-18T05:44:04.893Z,11.25
2022-11-18T05:46:31.656Z,11.00
2022-11-18T05:48:58.670Z,10.63
2022-11-18T05:51:25.386Z,11.18
2022-11-18T05:53:52.687Z,11.73
2022-11-18T05:56:25.611Z,12.05
2022-11-18T05:58:52.686Z,10.95
2022-11-18T06:01:28.041Z,10.93
2022-11-18T06:03:55.062Z,11.25
2022-11-18T06:06:22.934Z,11.13
2022-11-18T06:09:02.863Z,11.27
2022-11-18T06:11:35.923Z,11.30
2022-11-18T06:14:05.269Z,10.57
2022-11-18T06:16:35.331Z,10.50
2022-11-18T06:19:04.985Z,10.95
2022-11-18T06:21:31.692Z,10.40
2022-11-18T06:23:58.932Z,10.32
2022-11-18T06:26:25.722Z,11.00
2022-11-18T06:28:52.765Z,10.23
2022-11-18T06:31:19.591Z,10.35
2022-11-18T06:33:46.609Z,11.10
2022-11-18T06:36:13.329Z,10.50
2022-11-18T06:38:40.372Z,10.55
2022-11-18T06:41:07.145Z,9.85
2022-11-18T06:43:41.392Z,11.00
2022-11-18T06:46:29.017Z,10.25
2022-11-18T06:48:56.307Z,11.13
2022-11-18T06:51:23.547Z,9.93
2022-11-18T06:53:50.813Z,10.20
2022-11-18T06:56:18.421Z,10.32
2022-11-18T06:58:45.704Z,9.95
2022-11-18T07:01:14.434Z,9.63
2022-11-18T07:03:41.726Z,9.55
2022-11-18T07:06:08.621Z,10.40
2022-11-18T07:08:37.048Z,9.93
2022-11-18T07:11:08.323Z,9.25
2022-11-18T07:13:40.572Z,9.10
2022-11-18T07:16:21.637Z,9.95
2022-11-18T07:18:49.550Z,9.75
2022-11-18T07:21:24.149Z,10.30
2022-11-18T07:23:51.330Z,10.43
2022-11-18T07:26:18.200Z,10.05
2022-11-18T07:28:45.368Z,9.13
2022-11-18T07:31:13.657Z,9.60
2022-11-18T07:33:41.240Z,11.32
2022-11-18T07:36:12.695Z,10.15
2022-11-18T07:38:39.922Z,9.20
2022-11-18T07:41:13.744Z,10.32
2022-11-18T07:43:41.102Z,10.18
2022-11-18T07:46:11.510Z,9.07
2022-11-18T07:48:38.528Z,11.02
2022-11-18T07:51:05.425Z,10.52
2022-11-18T07:53:33.147Z,10.55
2022-11-18T07:56:00.160Z,9.60
2022-11-18T07:58:27.297Z,9.23
2022-11-18T08:00:54.040Z,10.00
2022-11-18T08:03:27.891Z,9.38
2022-11-18T08:06:01.476Z,9.57
2022-11-18T08:08:28.528Z,10.52
2022-11-18T08:10:57.121Z,10.02
2022-11-18T08:13:24.650Z,9.52
2022-11-18T08:15:51.445Z,9.73
2022-11-18T08:18:18.665Z,10.05
2022-11-18T08:20:45.382Z,9.60
2022-11-18T08:23:13.100Z,10.43
2022-11-18T08:25:40.537Z,10.05
2022-11-18T08:28:07.826Z,10.30
2022-11-18T08:30:34.799Z,9.68
2022-11-18T08:33:02.072Z,11.32
2022-11-18T08:35:29.383Z,10.52
2022-11-18T08:37:56.539Z,11.60
2022-11-18T08:40:23.731Z,10.80
2022-11-18T08:42:50.774Z,10.13
2022-11-18T08:45:17.582Z,11.40
2022-11-18T08:47:44.579Z,10.07
2022-11-18T08:50:11.531Z,11.00
2022-11-18T08:52:38.689Z,12.20
2022-11-18T08:55:05.755Z,10.93
2022-11-18T08:57:32.728Z,11.10
2022-11-18T08:59:59.530Z,12.23
2022-11-18T09:02:26.660Z,11.05
2022-11-18T09:04:53.644Z,11.38
2022-11-18T09:07:21.423Z,11.82
2022-11-18T09:09:48.238Z,12.27
2022-11-18T09:12:17.631Z,12.15
2022-11-18T09:17:32.184Z,13.50
2022-11-18T09:20:17.424Z,11.98
2022-11-18T09:22:44.187Z,13.00
2022-11-18T09:25:11.216Z,12.50
2022-11-18T09:27:37.936Z,13.30
2022-11-18T09:30:05.649Z,13.07
2022-11-18T09:32:33.261Z,12.68
2022-11-18T09:35:00.360Z,14.80
2022-11-18T09:37:27.065Z,13.40
2022-11-18T09:39:54.096Z,13.27
2022-11-18T09:42:37.951Z,13.20
2022-11-18T09:45:24.540Z,13.10
2022-11-18T09:47:51.614Z,12.80
2022-11-18T09:53:19.165Z,12.70
2022-11-18T09:55:46.176Z,14.00
2022-11-18T09:58:18.277Z,13.30
2022-11-18T10:00:46.746Z,13.60
2022-11-18T10:03:37.975Z,13.57
2022-11-18T10:06:31.180Z,13.57
2022-11-18T10:09:16.825Z,14.15
2022-11-18T10:12:05.211Z,13.52
2022-11-18T10:15:06.293Z,14.18
2022-11-18T10:17:54.870Z,13.85
2022-11-18T10:20:29.159Z,14.00
2022-11-18T10:23:14.684Z,14.73
2022-11-18T10:25:41.437Z,13.15
2022-11-18T10:28:15.715Z,14.52
2022-11-18T10:30:42.497Z,14.60
2022-11-18T10:33:21.477Z,14.15
2022-11-18T10:35:48.379Z,13.68
2022-11-18T10:38:15.356Z,14.73
2022-11-18T10:41:03.856Z,13.60
2022-11-18T10:43:45.907Z,15.40
2022-11-18T10:46:32.685Z,14.70
2022-11-18T10:49:09.037Z,13.63
2022-11-18T10:51:36.991Z,14.90
2022-11-18T10:54:23.220Z,15.38
2022-11-18T10:56:58.073Z,14.82
2022-11-18T10:59:46.674Z,14.57
2022-11-18T11:02:31.892Z,15.48
2022-11-18T11:05:03.665Z,17.15
2022-11-18T11:07:37.047Z,16.98
2022-11-18T11:10:10.335Z,16.65
2022-11-18T11:12:38.600Z,18.27
2022-11-18T11:15:09.243Z,17.70
2022-11-18T11:17:42.180Z,20.38
2022-11-18T11:20:21.916Z,18.38
2022-11-18T11:22:48.826Z,20.50
2022-11-18T11:25:22.774Z,17.80
2022-11-18T11:28:20.229Z,20.38
2022-11-18T11:31:22.091Z,20.42
2022-11-18T11:34:05.134Z,19.13
2022-11-18T11:36:50.477Z,20.65
2022-11-18T11:39:35.981Z,20.98
2022-11-18T11:44:42.759Z,21.10
2022-11-18T11:47:43.828Z,21.48
2022-11-18T11:50:16.551Z,21.48
2022-11-18T11:53:14.504Z,21.55
2022-11-18T11:56:10.271Z,21.02
2022-11-18T12:01:28.042Z,21.38
2022-11-18T12:06:57.430Z,21.90
2022-11-18T12:09:39.755Z,22.13
2022-11-18T12:12:35.839Z,22.38
2022-11-18T12:15:19.114Z,23.02
2022-11-18T12:18:23.706Z,22.80
2022-11-18T12:20:52.319Z,23.55
2022-11-18T12:23:20.594Z,21.80
2022-11-18T12:25:47.598Z,23.35
2022-11-18T12:28:32.839Z,22.10
2022-11-18T12:31:18.297Z,21.67
2022-11-18T12:33:51.302Z,23.08
2022-11-18T12:36:44.894Z,22.65
2022-11-18T12:39:23.650Z,22.52
2022-11-18T12:42:09.075Z,22.35
2022-11-18T12:44:36.058Z,22.25
2022-11-18T12:47:03.778Z,22.50
2022-11-18T12:49:30.469Z,22.00
2022-11-18T12:52:00.400Z,22.98
2022-11-18T12:54:46.425Z,22.33
2022-11-18T12:57:28.226Z,21.67
2022-11-18T12:59:55.032Z,20.40
2022-11-18T13:02:29.448Z,21.35
2022-11-18T13:05:08.284Z,20.05
2022-11-18T13:08:04.655Z,21.58
2022-11-18T13:10:33.373Z,21.15
2022-11-18T13:13:00.477Z,20.58
2022-11-18T13:15:45.805Z,20.88
2022-11-18T13:18:18.030Z,20.85
2022-11-18T13:20:56.457Z,20.15
2022-11-18T13:23:49.920Z,22.20
2022-11-18T13:26:26.910Z,20.77
2022-11-18T13:29:03.294Z,21.52
2022-11-18T13:31:33.060Z,20.95
2022-11-18T13:34:03.705Z,20.45
2022-11-18T13:36:31.358Z,20.88
2022-11-18T13:39:03.306Z,21.13
2022-11-18T13:41:33.875Z,22.27
2022-11-18T13:44:11.938Z,19.83
2022-11-18T13:46:39.817Z,21.25
2022-11-18T13:49:06.888Z,19.80
2022-11-18T13:51:33.597Z,20.42
2022-11-18T13:54:01.013Z,19.67
2022-11-18T13:56:34.410Z,21.15
2022-11-18T13:59:17.009Z,20.40
2022-11-18T14:01:44.873Z,18.90
2022-11-18T14:04:25.886Z,20.38
2022-11-18T14:06:52.665Z,19.85
2022-11-18T14:09:22.530Z,19.55
2022-11-18T14:12:01.540Z,19.33
2022-11-18T14:14:36.057Z,18.10
2022-11-18T14:17:15.167Z,20.45
2022-11-18T14:19:42.341Z,18.75
2022-11-18T14:22:14.873Z,18.08
2022-11-18T14:24:42.351Z,17.65
2022-11-18T14:27:51.228Z,17.83
2022-11-18T14:30:27.795Z,18.40
2022-11-18T14:33:15.494Z,17.67
2022-11-18T14:35:45.178Z,18.08
2022-11-18T14:38:57.612Z,16.48
2022-11-18T14:41:03.520Z,17.42
2022-11-18T14:43:30.245Z,16.90
2022-11-18T14:46:02.675Z,16.90
2022-11-18T14:48:32.455Z,16.88
2022-11-18T14:51:00.239Z,16.27
2022-11-18T14:53:27.075Z,16.13
2022-11-18T14:55:54.443Z,17.48
2022-11-18T14:58:21.215Z,15.88
2022-11-18T15:00:48.979Z,15.63
2022-11-18T15:03:15.946Z,15.88
2022-11-18T15:05:43.127Z,16.27
2022-11-18T15:08:09.875Z,16.75
2022-11-18T15:10:37.079Z,16.73
2022-11-18T15:13:03.807Z,16.85
2022-11-18T15:15:30.867Z,16.08
2022-11-18T15:17:57.549Z,16.17
2022-11-18T15:20:24.620Z,15.43
2022-11-18T15:22:51.368Z,16.27
2022-11-18T15:25:18.417Z,15.35
2022-11-18T15:27:45.158Z,14.77
2022-11-18T15:30:13.534Z,16.35
2022-11-18T15:32:40.624Z,15.80
2022-11-18T15:35:08.280Z,16.80
2022-11-18T15:37:34.987Z,16.10
2022-11-18T15:40:02.000Z,17.10
2022-11-18T15:42:28.682Z,16.65
2022-11-18T15:44:55.778Z,15.20
2022-11-18T15:47:22.515Z,15.88
2022-11-18T15:49:49.612Z,15.23
2022-11-18T15:52:17.079Z,16.17
2022-11-18T15:54:44.643Z,15.82
2022-11-18T15:57:11.408Z,16.08
2022-11-18T15:59:38.471Z,16.63
2022-11-18T16:02:06.046Z,16.45
2022-11-18T16:04:33.064Z,16.35
2022-11-18T16:07:01.157Z,15.38
2022-11-18T16:09:48.305Z,15.52
2022-11-18T16:12:33.774Z,15.07
2022-11-18T16:15:19.654Z,16.85
2022-11-18T16:17:46.386Z,15.52
2022-11-18T16:20:13.465Z,15.93
2022-11-18T16:22:40.144Z,15.75
2022-11-18T16:25:07.497Z,15.88
2022-11-18T16:27:35.910Z,15.80
2022-11-18T16:30:04.311Z,15.23
2022-11-18T16:32:31.078Z,15.23
2022-11-18T16:35:01.329Z,15.20
2022-11-18T16:37:28.487Z,15.32
2022-11-18T16:39:55.537Z,15.40
2022-11-18T16:42:22.554Z,15.68
2022-11-18T16:44:49.678Z,15.80
2022-11-18T16:47:16.510Z,15.10
2022-11-18T16:49:44.019Z,16.30
2022-11-18T16:52:10.809Z,15.52
2022-11-18T16:54:44.283Z,14.38
2022-11-18T16:57:11.882Z,16.10
2022-11-18T16:59:38.981Z,15.60
2022-11-18T17:02:06.259Z,16.63
2022-11-18T17:04:36.409Z,16.38
2022-11-18T17:07:03.721Z,15.38
2022-11-18T17:09:30.956Z,15.00
2022-11-18T17:11:58.709Z,15.38
2022-11-18T17:14:25.890Z,16.25
2022-11-18T17:16:52.733Z,16.25
2022-11-18T17:19:21.248Z,15.23
2022-11-18T17:21:48.197Z,15.73
2022-11-18T17:24:16.866Z,15.25
2022-11-18T17:26:43.954Z,15.77
2022-11-18T17:29:11.716Z,15.68
2022-11-18T17:31:38.760Z,16.08
2022-11-18T17:34:05.945Z,15.40
2022-11-18T17:36:32.712Z,14.77
2022-11-18T17:38:59.992Z,15.05
2022-11-18T17:41:46.182Z,16.88
2022-11-18T17:44:14.924Z,15.32
2022-11-18T17:46:41.749Z,16.73
2022-11-18T17:49:16.451Z,15.40
2022-11-18T17:51:43.360Z,15.43
2022-11-18T17:54:10.445Z,15.13
2022-11-18T17:56:37.194Z,15.65
2022-11-18T17:59:05.855Z,16.25
2022-11-18T18:01:32.636Z,15.70
2022-11-18T18:03:59.843Z,16.50
2022-11-18T18:06:27.008Z,16.33
2022-11-18T18:08:57.778Z,15.65
2022-11-18T18:11:24.661Z,16.50
2022-11-18T18:14:10.466Z,16.83
2022-11-18T18:16:37.357Z,16.00
2022-11-18T18:19:05.167Z,17.40
2022-11-18T18:21:32.214Z,16.77
2022-11-18T18:23:59.315Z,15.65
2022-11-18T18:26:31.222Z,17.55
2022-11-18T18:28:59.733Z,15.82
2022-11-18T18:31:26.810Z,17.02
2022-11-18T18:33:53.956Z,16.13
2022-11-18T18:36:21.737Z,16.58
2022-11-18T18:38:52.515Z,16.83
2022-11-18T18:41:20.797Z,16.52
2022-11-18T18:43:48.516Z,16.58
2022-11-18T18:46:30.085Z,16.55
2022-11-18T18:49:06.790Z,15.90
2022-11-18T18:51:38.492Z,15.85
2022-11-18T18:54:05.816Z,16.70
2022-11-18T18:56:32.812Z,16.95
2022-11-18T18:59:00.231Z,16.88
2022-11-18T19:01:27.813Z,17.42
2022-11-18T19:03:56.384Z,17.05
2022-11-18T19:09:17.541Z,17.27
2022-11-18T19:12:05.606Z,17.42
2022-11-18T19:14:41.499Z,17.48
2022-11-18T19:17:12.630Z,15.73
2022-11-18T19:19:59.824Z,16.90
2022-11-18T19:22:28.968Z,16.38
2022-11-18T19:24:58.298Z,16.13
2022-11-18T19:27:25.444Z,17.65
2022-11-18T19:29:52.507Z,16.02
2022-11-18T19:32:19.225Z,16.52
2022-11-18T19:34:46.272Z,16.23
2022-11-18T19:37:14.356Z,15.77
2022-11-18T19:39:41.447Z,17.80
2022-11-18T19:42:11.135Z,17.23
2022-11-18T19:44:40.201Z,15.18
2022-11-18T19:47:06.970Z,15.60
2022-11-18T19:49:34.089Z,16.48
2022-11-18T19:52:00.822Z,16.25
2022-11-18T19:54:28.931Z,15.70
2022-11-18T19:56:58.747Z,15.32
2022-11-18T19:59:25.808Z,15.38
2022-11-18T20:01:52.557Z,15.07
2022-11-18T20:04:19.655Z,14.32
2022-11-18T20:06:46.452Z,16.20
2022-11-18T20:09:13.635Z,14.90
2022-11-18T20:11:40.411Z,14.85
2022-11-18T20:14:08.401Z,15.48
2022-11-18T20:16:36.100Z,14.57
2022-11-18T20:19:09.349Z,13.20
2022-11-18T20:21:39.111Z,14.50
2022-11-18T20:24:07.671Z,13.90
2022-11-18T20:26:35.702Z,15.75
2022-11-18T20:29:02.766Z,15.20
2022-11-18T20:31:29.570Z,13.80
2022-11-18T20:33:56.660Z,13.77
2022-11-18T20:36:27.724Z,13.80
2022-11-18T20:38:56.118Z,14.25
2022-11-18T20:41:23.382Z,12.70
2022-11-18T20:43:50.427Z,12.60
2022-11-18T20:46:20.660Z,14.00
2022-11-18T20:48:48.706Z,13.50
2022-11-18T20:51:15.455Z,11.77
2022-11-18T20:53:42.873Z,12.70
2022-11-18T20:56:10.491Z,13.50
2022-11-18T20:58:37.702Z,10.88
2022-11-18T21:01:21.837Z,12.77
2022-11-18T21:03:56.386Z,12.52
2022-11-18T21:06:25.245Z,11.32
2022-11-18T21:08:56.376Z,12.85
2022-11-18T21:11:23.118Z,11.73
2022-11-18T21:14:08.416Z,12.10
2022-11-18T21:16:35.140Z,11.27
2022-11-18T21:19:02.235Z,13.02
2022-11-18T21:21:47.683Z,11.88
2022-11-18T21:26:46.143Z,11.63
2022-11-18T21:29:13.908Z,11.05
2022-11-18T21:31:41.010Z,11.80
2022-11-18T21:34:08.341Z,11.30
2022-11-18T21:36:37.007Z,12.60
2022-11-18T21:39:07.078Z,11.07
2022-11-18T21:41:34.803Z,10.55
2022-11-18T21:44:06.307Z,12.70
2022-11-18T21:46:37.410Z,11.23
2022-11-18T21:49:04.644Z,11.35
2022-11-18T21:51:32.224Z,10.82
2022-11-18T21:53:59.859Z,11.48
2022-11-18T21:56:31.166Z,11.23
2022-11-18T21:59:02.417Z,10.88
2022-11-18T22:01:31.095Z,11.93
2022-11-18T22:03:59.835Z,11.80
2022-11-18T22:06:29.651Z,11.18
2022-11-18T22:08:56.707Z,10.48
2022-11-18T22:11:24.219Z,10.88
2022-11-18T22:13:51.982Z,10.65
2022-11-18T22:16:20.283Z,10.65
2022-11-18T22:18:53.030Z,10.70
2022-11-18T22:21:23.194Z,12.07
2022-11-18T22:23:50.330Z,10.30
2022-11-18T22:26:18.744Z,10.50
2022-11-18T22:28:46.083Z,11.32
2022-11-18T22:31:14.400Z,10.43
2022-11-18T22:33:41.496Z,10.70
2022-11-18T22:36:10.467Z,11.00
2022-11-18T22:38:37.575Z,10.20
2022-11-18T22:41:05.424Z,10.63
2022-11-18T22:43:33.244Z,10.25
2022-11-18T22:46:04.435Z,10.63
2022-11-18T22:48:31.492Z,9.65
2022-11-18T22:51:02.557Z,10.45
2022-11-18T22:53:29.880Z,9.98
2022-11-18T22:56:06.545Z,9.23
2022-11-18T22:58:33.751Z,9.07
2022-11-18T23:01:04.846Z,9.18
2022-11-18T23:03:32.017Z,9.43
2022-11-18T23:05:58.864Z,10.88
2022-11-18T23:08:26.346Z,9.30
2022-11-18T23:10:53.265Z,9.40
2022-11-18T23:13:38.693Z,9.02
2022-11-18T23:16:05.752Z,9.57
2022-11-18T23:18:32.766Z,10.15
2022-11-18T23:21:00.661Z,9.98
2022-11-18T23:23:28.583Z,9.50
2022-11-18T23:25:55.590Z,9.75
2022-11-18T23:28:22.640Z,10.23
2022-11-18T23:30:49.388Z,8.35
2022-11-18T23:33:16.408Z,9.63
2022-11-18T23:35:43.116Z,9.13
2022-11-18T23:38:10.180Z,8.85
2022-11-18T23:40:36.936Z,7.88
2022-11-18T23:43:03.956Z,9.77
2022-11-18T23:45:30.872Z,9.10
2022-11-18T23:47:57.940Z,8.85
2022-11-18T23:50:24.624Z,8.18
2022-11-18T23:52:51.643Z,9.18
2022-11-18T23:55:18.382Z,9.10
2022-11-18T23:57:45.375Z,8.25
